Time,TemperatureF,DewpointF,PressureIn,WindDirection,WindDirectionDegrees,WindSpeedMPH,WindSpeedGustMPH,Humidity,HourlyPrecipIn,Conditions,Clouds,dailyrainin,SoftwareType,DateUTC
2013-05-27 00:08:00,76.4,8.0,29.66,North,357,4.0,6.0,7,0.00,,,0.00,weatherlink.com 1.10,2013-05-27 06:08:00,
2013-05-27 00:23:00,76.2,11.0,29.66,North,358,4.0,7.0,8,0.00,,,0.00,weatherlink.com 1.10,2013-05-27 06:23:00,
2013-05-27 00:38:00,75.4,7.0,29.66,NNW,345,3.0,7.0,7,0.00,,,0.00,weatherlink.com 1.10,2013-05-27 06:38:00,
2013-05-27 00:53:00,75.3,7.0,29.66,North,5,2.0,6.0,7,0.00,,,0.00,weatherlink.com 1.10,2013-05-27 06:53:00,
2013-05-27 01:08:00,75.0,12.0,29.66,North,358,3.0,5.0,9,0.00,,,0.00,weatherlink.com 1.10,2013-05-27 07:08:00,
2013-05-27 01:23:00,74.9,10.0,29.66,NNW,347,3.0,7.0,8,0.00,,,0.00,weatherlink.com 1.10,2013-05-27 07:23:00,
2013-05-27 01:38:00,74.2,9.0,29.66,NNW,341,3.0,6.0,8,0.00,,,0.00,weatherlink.com 1.10,2013-05-27 07:38:00,
2013-05-27 01:53:00,73.9,9.0,29.66,NNW,347,4.0,5.0,8,0.00,,,0.00,weatherlink.com 1.10,2013-05-27 07:53:00,
2013-05-27 02:08:00,73.7,11.0,29.65,North,8,4.0,5.0,9,0.00,,,0.00,weatherlink.com 1.10,2013-05-27 08:08:00,
2013-05-27 02:23:00,73.7,14.0,29.65,NNW,329,5.0,6.0,10,0.00,,,0.00,weatherlink.com 1.10,2013-05-27 08:23:00,
2013-05-27 02:38:00,73.0,13.0,29.65,North,3,4.0,7.0,10,0.00,,,0.00,weatherlink.com 1.10,2013-05-27 08:38:00,
2013-05-27 02:53:00,70.9,14.0,29.65,NE,37,2.0,3.0,11,0.00,,,0.00,weatherlink.com 1.10,2013-05-27 08:53:00,
2013-05-27 03:08:00,70.1,11.0,29.65,North,360,4.0,5.0,10,0.00,,,0.00,weatherlink.com 1.10,2013-05-27 09:08:00,
2013-05-27 03:23:00,71.5,12.0,29.65,NNE,23,3.0,5.0,10,0.00,,,0.00,weatherlink.com 1.10,2013-05-27 09:23:00,
2013-05-27 03:38:00,71.5,10.0,29.65,NNE,24,4.0,6.0,9,0.00,,,0.00,weatherlink.com 1.10,2013-05-27 09:38:00,
2013-05-27 03:53:00,71.2,9.0,29.65,NNW,345,2.0,4.0,9,0.00,,,0.00,weatherlink.com 1.10,2013-05-27 09:53:00,
2013-05-27 04:08:00,70.9,9.0,29.64,NNW,333,5.0,6.0,9,0.00,,,0.00,weatherlink.com 1.10,2013-05-27 10:08:00,
2013-05-27 04:23:00,70.7,9.0,29.64,North,351,2.0,5.0,9,0.00,,,0.00,weatherlink.com 1.10,2013-05-27 10:23:00,
2013-05-27 04:38:00,70.9,7.0,29.64,North,350,2.0,5.0,8,0.00,,,0.00,weatherlink.com 1.10,2013-05-27 10:38:00,
2013-05-27 04:53:00,71.0,9.0,29.65,NNE,12,2.0,5.0,9,0.00,,,0.00,weatherlink.com 1.10,2013-05-27 10:53:00,
2013-05-27 05:08:00,70.7,9.0,29.65,North,356,3.0,6.0,9,0.00,,,0.00,weatherlink.com 1.10,2013-05-27 11:08:00,
2013-05-27 05:23:00,70.1,8.0,29.65,NE,37,2.0,7.0,9,0.00,,,0.00,weatherlink.com 1.10,2013-05-27 11:23:00,
2013-05-27 05:38:00,70.0,8.0,29.65,North,358,0.0,4.0,9,0.00,,,0.00,weatherlink.com 1.10,2013-05-27 11:38:00,
2013-05-27 05:53:00,70.8,9.0,29.66,NNW,343,2.0,3.0,9,0.00,,,0.00,weatherlink.com 1.10,2013-05-27 11:53:00,
2013-05-27 06:08:00,70.8,9.0,29.66,NNE,13,3.0,4.0,9,0.00,,,0.00,weatherlink.com 1.10,2013-05-27 12:08:00,
2013-05-27 06:23:00,70.3,11.0,29.66,North,4,1.0,5.0,10,0.00,,,0.00,weatherlink.com 1.10,2013-05-27 12:23:00,
2013-05-27 06:38:00,70.3,11.0,29.67,North,356,1.0,4.0,10,0.00,,,0.00,weatherlink.com 1.10,2013-05-27 12:38:00,
2013-05-27 06:53:00,70.2,11.0,29.67,NNW,334,1.0,3.0,10,0.00,,,0.00,weatherlink.com 1.10,2013-05-27 12:53:00,
2013-05-27 07:08:00,70.2,13.0,29.67,NNW,345,2.0,4.0,11,0.00,,,0.00,weatherlink.com 1.10,2013-05-27 13:08:00,
2013-05-27 07:23:00,72.2,15.0,29.67,North,1,2.0,4.0,11,0.00,,,0.00,weatherlink.com 1.10,2013-05-27 13:23:00,
2013-05-27 07:38:00,72.6,13.0,29.67,North,358,0.0,4.0,10,0.00,,,0.00,weatherlink.com 1.10,2013-05-27 13:38:00,
2013-05-27 07:53:00,73.9,16.0,29.68,North,8,3.0,4.0,11,0.00,,,0.00,weatherlink.com 1.10,2013-05-27 13:53:00,
2013-05-27 08:08:00,74.1,14.0,29.68,North,352,2.0,6.0,10,0.00,,,0.00,weatherlink.com 1.10,2013-05-27 14:08:00,
2013-05-27 08:23:00,75.1,15.0,29.68,NNW,333,2.0,5.0,10,0.00,,,0.00,weatherlink.com 1.10,2013-05-27 14:23:00,
2013-05-27 08:38:00,76.2,13.0,29.68,WNW,302,1.0,5.0,9,0.00,,,0.00,weatherlink.com 1.10,2013-05-27 14:38:00,
2013-05-27 08:53:00,77.4,19.0,29.68,NNW,345,2.0,5.0,11,0.00,,,0.00,weatherlink.com 1.10,2013-05-27 14:53:00,
2013-05-27 09:09:00,78.1,15.0,29.68,WNW,301,3.0,6.0,9,0.00,,,0.00,weatherlink.com 1.10,2013-05-27 15:09:00,
2013-05-27 09:24:00,77.8,17.0,29.68,WNW,300,1.0,8.0,10,0.00,,,0.00,weatherlink.com 1.10,2013-05-27 15:24:00,
2013-05-27 09:39:00,79.1,18.0,29.67,WNW,300,5.0,6.0,10,0.00,,,0.00,weatherlink.com 1.10,2013-05-27 15:39:00,
2013-05-27 09:54:00,79.7,16.0,29.68,WNW,300,3.0,8.0,9,0.00,,,0.00,weatherlink.com 1.10,2013-05-27 15:54:00,
2013-05-27 10:09:00,79.9,13.0,29.67,West,270,5.0,8.0,8,0.00,,,0.00,weatherlink.com 1.10,2013-05-27 16:09:00,
2013-05-27 10:24:00,80.3,7.0,29.67,WNW,300,2.0,8.0,6,0.00,,,0.00,weatherlink.com 1.10,2013-05-27 16:24:00,
2013-05-27 10:39:00,80.9,19.0,29.66,North,350,5.0,9.0,10,0.00,,,0.00,weatherlink.com 1.10,2013-05-27 16:39:00,
2013-05-27 10:54:00,81.2,14.0,29.66,SW,233,4.0,9.0,8,0.00,,,0.00,weatherlink.com 1.10,2013-05-27 16:54:00,
2013-05-27 11:09:00,81.9,15.0,29.66,WNW,298,3.0,11.0,8,0.00,,,0.00,weatherlink.com 1.10,2013-05-27 17:09:00,
2013-05-27 11:24:00,82.5,18.0,29.65,WNW,290,6.0,11.0,9,0.00,,,0.00,weatherlink.com 1.10,2013-05-27 17:24:00,
2013-05-27 11:39:00,83.4,19.0,29.65,WSW,249,7.0,11.0,9,0.00,,,0.00,weatherlink.com 1.10,2013-05-27 17:39:00,
2013-05-27 11:54:00,83.7,22.0,29.64,WSW,257,5.0,12.0,10,0.00,,,0.00,weatherlink.com 1.10,2013-05-27 17:54:00,
2013-05-27 12:09:00,84.2,24.0,29.64,West,276,4.0,14.0,11,0.00,,,0.00,weatherlink.com 1.10,2013-05-27 18:09:00,
2013-05-27 12:24:00,84.5,17.0,29.64,West,280,5.0,14.0,8,0.00,,,0.00,weatherlink.com 1.10,2013-05-27 18:24:00,
2013-05-27 12:39:00,85.3,11.0,29.63,West,266,5.0,13.0,6,0.00,,,0.00,weatherlink.com 1.10,2013-05-27 18:39:00,
2013-05-27 12:54:00,85.7,18.0,29.62,NW,315,7.0,10.0,8,0.00,,,0.00,weatherlink.com 1.10,2013-05-27 18:54:00,
2013-05-27 13:10:00,85.8,18.0,29.62,WSW,253,2.0,12.0,8,0.00,,,0.00,weatherlink.com 1.10,2013-05-27 19:10:00,
2013-05-27 13:24:00,86.7,12.0,29.61,WSW,252,11.0,13.0,6,0.00,,,0.00,weatherlink.com 1.10,2013-05-27 19:24:00,
2013-05-27 13:39:00,86.8,16.0,29.60,WNW,285,4.0,10.0,7,0.00,,,0.00,weatherlink.com 1.10,2013-05-27 19:39:00,
2013-05-27 13:54:00,87.1,8.0,29.60,North,350,2.0,12.0,5,0.00,,,0.00,weatherlink.com 1.10,2013-05-27 19:54:00,
2013-05-27 14:09:00,87.3,8.0,29.59,NW,321,3.0,10.0,5,0.00,,,0.00,weatherlink.com 1.10,2013-05-27 20:09:00,
2013-05-27 14:24:00,87.2,8.0,29.59,NNW,337,8.0,9.0,5,0.00,,,0.00,weatherlink.com 1.10,2013-05-27 20:24:00,
2013-05-27 14:39:00,88.4,9.0,29.58,WSW,257,7.0,14.0,5,0.00,,,0.00,weatherlink.com 1.10,2013-05-27 20:39:00,
2013-05-27 14:54:00,87.4,8.0,29.58,WNW,288,7.0,13.0,5,0.00,,,0.00,weatherlink.com 1.10,2013-05-27 20:54:00,
2013-05-27 15:09:00,87.5,13.0,29.57,NW,321,4.0,13.0,6,0.00,,,0.00,weatherlink.com 1.10,2013-05-27 21:09:00,
2013-05-27 15:24:00,87.0,16.0,29.57,West,271,4.0,10.0,7,0.00,,,0.00,weatherlink.com 1.10,2013-05-27 21:24:00,
2013-05-27 15:39:00,87.8,13.0,29.56,WNW,283,4.0,12.0,6,0.00,,,0.00,weatherlink.com 1.10,2013-05-27 21:39:00,
2013-05-27 15:54:00,88.1,9.0,29.55,West,267,4.0,11.0,5,0.00,,,0.00,weatherlink.com 1.10,2013-05-27 21:54:00,
2013-05-27 16:10:00,87.5,3.0,29.55,West,267,8.0,12.0,4,0.00,,,0.00,weatherlink.com 1.10,2013-05-27 22:10:00,
2013-05-27 16:24:00,87.8,13.0,29.55,West,270,3.0,9.0,6,0.00,,,0.00,weatherlink.com 1.10,2013-05-27 22:24:00,
2013-05-27 16:40:00,87.9,13.0,29.54,WNW,290,7.0,12.0,6,0.00,,,0.00,weatherlink.com 1.10,2013-05-27 22:40:00,
2013-05-27 16:55:00,87.1,12.0,29.53,WNW,284,2.0,8.0,6,0.00,,,0.00,weatherlink.com 1.10,2013-05-27 22:55:00,
2013-05-27 17:10:00,87.5,13.0,29.53,West,270,1.0,11.0,6,0.00,,,0.00,weatherlink.com 1.10,2013-05-27 23:10:00,
2013-05-27 17:25:00,88.1,13.0,29.52,WNW,284,2.0,10.0,6,0.00,,,0.00,weatherlink.com 1.10,2013-05-27 23:25:00,
2013-05-27 17:40:00,87.1,12.0,29.52,WNW,285,4.0,10.0,6,0.00,,,0.00,weatherlink.com 1.10,2013-05-27 23:40:00,
2013-05-27 17:55:00,87.5,13.0,29.51,West,267,3.0,8.0,6,0.00,,,0.00,weatherlink.com 1.10,2013-05-27 23:55:00,
2013-05-27 18:10:00,89.4,14.0,29.51,WNW,288,3.0,7.0,6,0.00,,,0.00,weatherlink.com 1.10,2013-05-28 00:10:00,
2013-05-27 18:25:00,89.5,14.0,29.51,West,273,2.0,11.0,6,0.00,,,0.00,weatherlink.com 1.10,2013-05-28 00:25:00,
2013-05-27 18:40:00,87.0,12.0,29.51,WNW,300,4.0,8.0,6,0.00,,,0.00,weatherlink.com 1.10,2013-05-28 00:40:00,
2013-05-27 18:55:00,86.3,15.0,29.51,West,268,4.0,8.0,7,0.00,,,0.00,weatherlink.com 1.10,2013-05-28 00:55:00,
2013-05-27 19:10:00,86.4,12.0,29.51,WSW,254,4.0,6.0,6,0.00,,,0.00,weatherlink.com 1.10,2013-05-28 01:10:00,
2013-05-27 19:25:00,86.1,15.0,29.51,WNW,299,1.0,2.0,7,0.00,,,0.00,weatherlink.com 1.10,2013-05-28 01:25:00,
2013-05-27 19:40:00,85.9,18.0,29.51,NW,307,0.0,4.0,8,0.00,,,0.00,weatherlink.com 1.10,2013-05-28 01:40:00,
2013-05-27 19:55:00,84.2,17.0,29.50,West,276,0.0,1.0,8,0.00,,,0.00,weatherlink.com 1.10,2013-05-28 01:55:00,
2013-05-27 20:10:00,83.3,16.0,29.50,North,350,3.0,3.0,8,0.00,,,0.00,weatherlink.com 1.10,2013-05-28 02:10:00,
2013-05-27 20:25:00,82.7,0.0,29.51,North,9,2.0,7.0,4,0.00,,,0.00,weatherlink.com 1.10,2013-05-28 02:25:00,
2013-05-27 20:40:00,82.2,0.0,29.51,NNE,12,1.0,3.0,4,0.00,,,0.00,weatherlink.com 1.10,2013-05-28 02:40:00,
2013-05-27 20:55:00,81.4,4.0,29.52,NNE,17,0.0,4.0,5,0.00,,,0.00,weatherlink.com 1.10,2013-05-28 02:55:00,
2013-05-27 21:10:00,80.8,4.0,29.52,NE,51,1.0,3.0,5,0.00,,,0.00,weatherlink.com 1.10,2013-05-28 03:10:00,
2013-05-27 21:25:00,80.8,8.0,29.52,NE,53,1.0,2.0,6,0.00,,,0.00,weatherlink.com 1.10,2013-05-28 03:25:00,
2013-05-27 21:40:00,80.9,4.0,29.52,ENE,65,3.0,3.0,5,0.00,,,0.00,weatherlink.com 1.10,2013-05-28 03:40:00,
2013-05-27 21:55:00,80.7,7.0,29.53,ENE,59,0.0,4.0,6,0.00,,,0.00,weatherlink.com 1.10,2013-05-28 03:55:00,
2013-05-27 22:10:00,80.2,7.0,29.53,NE,37,0.0,3.0,6,0.00,,,0.00,weatherlink.com 1.10,2013-05-28 04:10:00,
2013-05-27 22:25:00,79.8,7.0,29.53,NE,46,0.0,3.0,6,0.00,,,0.00,weatherlink.com 1.10,2013-05-28 04:25:00,
2013-05-27 22:40:00,80.2,7.0,29.54,NE,41,0.0,3.0,6,0.00,,,0.00,weatherlink.com 1.10,2013-05-28 04:40:00,
2013-05-27 22:55:00,79.7,7.0,29.53,NE,40,3.0,3.0,6,0.00,,,0.00,weatherlink.com 1.10,2013-05-28 04:55:00,
2013-05-27 23:10:00,79.0,10.0,29.54,NNE,12,0.0,3.0,7,0.00,,,0.00,weatherlink.com 1.10,2013-05-28 05:10:00,
2013-05-27 23:25:00,78.6,9.0,29.53,NE,43,2.0,3.0,7,0.00,,,0.00,weatherlink.com 1.10,2013-05-28 05:25:00,
2013-05-27 23:40:00,78.3,9.0,29.53,NE,45,2.0,3.0,7,0.00,,,0.00,weatherlink.com 1.10,2013-05-28 05:40:00,
2013-05-27 23:55:00,79.0,10.0,29.53,NE,46,3.0,3.0,7,0.00,,,0.00,weatherlink.com 1.10,2013-05-28 05:55:00,